createdAt,value
2019-05-13T00:02:14.568Z,11.90
2019-05-13T00:04:44.929Z,12.23
2019-05-13T00:07:14.328Z,11.77
2019-05-13T00:09:44.250Z,12.03
2019-05-13T00:12:13.910Z,11.73
2019-05-13T00:14:43.445Z,12.27
2019-05-13T00:17:14.596Z,12.73
2019-05-13T00:19:44.336Z,12.80
2019-05-13T00:22:14.145Z,12.23
2019-05-13T00:24:44.323Z,11.93
2019-05-13T00:27:14.130Z,12.03
2019-05-13T00:29:44.432Z,13.13
2019-05-13T00:32:13.839Z,13.00
2019-05-13T00:34:44.511Z,12.40
2019-05-13T00:37:14.740Z,13.60
2019-05-13T00:39:44.331Z,12.67
2019-05-13T00:42:14.247Z,13.50
2019-05-13T00:44:44.310Z,13.40
2019-05-13T00:47:13.808Z,13.70
2019-05-13T00:49:43.698Z,12.90
2019-05-13T00:52:14.803Z,12.87
2019-05-13T00:54:44.324Z,12.47
2019-05-13T00:57:13.650Z,12.93
2019-05-13T00:59:44.322Z,12.67
2019-05-13T01:02:14.023Z,12.23
2019-05-13T01:04:44.219Z,12.90
2019-05-13T01:07:25.161Z,12.93
2019-05-13T01:09:44.712Z,12.40
2019-05-13T01:12:14.054Z,12.10
2019-05-13T01:14:43.421Z,12.00
2019-05-13T01:17:14.216Z,11.77
2019-05-13T01:19:43.578Z,12.23
2019-05-13T01:22:13.597Z,11.80
2019-05-13T01:24:44.197Z,10.70
2019-05-13T01:27:14.101Z,11.47
2019-05-13T01:29:43.678Z,10.80
2019-05-13T01:32:14.400Z,10.83
2019-05-13T01:34:44.419Z,10.07
2019-05-13T01:37:13.844Z,9.77
2019-05-13T01:39:43.701Z,10.03
2019-05-13T01:42:13.734Z,9.53
2019-05-13T01:44:43.759Z,9.87
2019-05-13T01:47:13.494Z,9.37
2019-05-13T01:49:44.930Z,9.60
2019-05-13T01:52:14.307Z,8.63
2019-05-13T01:54:44.335Z,9.13
2019-05-13T01:57:14.303Z,8.90
2019-05-13T01:59:43.782Z,8.03
2019-05-13T02:02:13.817Z,8.87
2019-05-13T02:04:43.903Z,7.83
2019-05-13T02:07:14.367Z,8.40
2019-05-13T02:09:44.450Z,7.87
2019-05-13T02:12:13.825Z,7.87
2019-05-13T02:14:44.373Z,7.87
2019-05-13T02:17:14.621Z,6.90
2019-05-13T02:19:44.263Z,7.13
2019-05-13T02:22:14.577Z,6.50
2019-05-13T02:24:44.655Z,6.73
2019-05-13T02:27:14.362Z,6.40
2019-05-13T02:29:43.777Z,6.10
2019-05-13T02:32:13.835Z,6.20
2019-05-13T02:34:43.991Z,5.60
2019-05-13T02:37:13.388Z,5.80
2019-05-13T02:39:43.031Z,5.97
2019-05-13T02:42:13.238Z,5.63
2019-05-13T02:44:43.714Z,5.50
2019-05-13T02:47:13.256Z,4.83
2019-05-13T02:49:43.201Z,5.10
2019-05-13T02:52:13.443Z,4.90
2019-05-13T02:54:42.972Z,4.60
2019-05-13T02:57:12.645Z,4.57
2019-05-13T02:59:42.434Z,4.57
2019-05-13T03:02:12.515Z,4.20
2019-05-13T03:04:43.448Z,4.03
2019-05-13T03:07:13.025Z,4.37
2019-05-13T03:09:42.448Z,3.63
2019-05-13T03:12:13.121Z,4.07
2019-05-13T03:14:47.927Z,3.70
2019-05-13T03:17:28.395Z,3.77
2019-05-13T03:19:57.701Z,3.40
2019-05-13T03:22:28.066Z,3.40
2019-05-13T03:24:57.404Z,3.67
2019-05-13T03:27:26.800Z,3.40
2019-05-13T03:29:56.129Z,4.07
2019-05-13T03:32:28.849Z,3.87
2019-05-13T03:34:57.254Z,3.47
2019-05-13T03:37:27.471Z,3.53
2019-05-13T03:39:59.371Z,3.90
2019-05-13T03:42:33.501Z,3.77
2019-05-13T03:45:04.828Z,3.37
2019-05-13T03:47:36.539Z,3.23
2019-05-13T03:50:06.180Z,3.60
2019-05-13T03:52:35.535Z,3.10
2019-05-13T03:55:08.461Z,3.13
2019-05-13T03:57:38.019Z,3.43
2019-05-13T04:00:07.641Z,3.20
2019-05-13T04:02:36.963Z,3.10
2019-05-13T04:05:07.247Z,3.30
2019-05-13T04:07:36.606Z,3.10
2019-05-13T04:10:06.869Z,3.20
2019-05-13T04:12:36.215Z,2.83
2019-05-13T04:15:05.820Z,3.47
2019-05-13T04:17:35.173Z,3.10
2019-05-13T04:20:04.822Z,2.90
2019-05-13T04:22:34.325Z,3.17
2019-05-13T04:25:03.809Z,2.50
2019-05-13T04:27:33.356Z,2.57
2019-05-13T04:30:03.706Z,2.60
2019-05-13T04:32:33.758Z,2.57
2019-05-13T04:35:04.124Z,2.43
2019-05-13T04:37:33.706Z,2.97
2019-05-13T04:40:03.919Z,2.40
2019-05-13T04:42:33.672Z,2.70
2019-05-13T04:45:03.531Z,2.77
2019-05-13T04:47:35.305Z,2.40
2019-05-13T04:50:04.744Z,2.20
2019-05-13T04:52:34.235Z,2.23
2019-05-13T04:55:03.865Z,2.30
2019-05-13T04:57:33.439Z,2.10
2019-05-13T05:00:04.252Z,2.00
2019-05-13T05:03:03.101Z,1.90
2019-05-13T05:05:53.972Z,2.20
2019-05-13T05:09:03.243Z,2.13
2019-05-13T05:12:31.884Z,2.40
2019-05-13T05:15:52.386Z,2.00
2019-05-13T05:18:58.507Z,1.63
2019-05-13T05:21:32.135Z,2.23
2019-05-13T05:24:32.316Z,1.83
2019-05-13T05:28:03.743Z,1.70
2019-05-13T05:31:02.311Z,1.70
2019-05-13T05:34:21.910Z,1.70
2019-05-13T05:37:13.831Z,2.53
2019-05-13T05:39:43.685Z,3.40
2019-05-13T05:42:15.845Z,2.70
2019-05-13T05:44:47.748Z,3.97
2019-05-13T05:47:17.868Z,3.40
2019-05-13T05:49:48.119Z,3.13
2019-05-13T05:52:21.271Z,3.30
2019-05-13T05:54:53.258Z,2.70
2019-05-13T05:57:24.365Z,3.73
2019-05-13T05:59:56.115Z,2.17
2019-05-13T06:02:28.631Z,2.10
2019-05-13T06:04:58.692Z,2.00
2019-05-13T06:07:28.329Z,2.00
2019-05-13T06:09:57.671Z,1.87
2019-05-13T06:12:27.382Z,1.77
2019-05-13T06:14:57.035Z,2.30
2019-05-13T06:17:26.444Z,1.53
2019-05-13T06:19:55.825Z,2.10
2019-05-13T06:22:25.184Z,1.57
2019-05-13T06:24:54.527Z,2.10
2019-05-13T06:27:23.891Z,2.57
2019-05-13T06:29:53.238Z,3.20
2019-05-13T06:32:26.290Z,2.90
2019-05-13T06:34:53.759Z,3.00
2019-05-13T06:37:23.150Z,3.00
2019-05-13T06:39:52.495Z,2.80
2019-05-13T06:42:22.339Z,2.80
2019-05-13T06:44:51.790Z,2.30
2019-05-13T06:47:21.994Z,2.40
2019-05-13T06:49:51.765Z,2.50
2019-05-13T06:52:21.359Z,2.40
2019-05-13T06:54:51.998Z,2.60
2019-05-13T06:57:22.093Z,2.33
2019-05-13T06:59:52.346Z,2.43
2019-05-13T07:02:22.357Z,2.10
2019-05-13T07:04:51.864Z,2.10
2019-05-13T07:07:22.070Z,1.77
2019-05-13T07:09:51.888Z,1.93
2019-05-13T07:12:22.071Z,2.20
2019-05-13T07:14:51.963Z,1.60
2019-05-13T07:17:22.340Z,1.80
2019-05-13T07:19:51.947Z,2.67
2019-05-13T07:22:23.051Z,1.50
2019-05-13T07:24:52.651Z,1.70
2019-05-13T07:27:22.896Z,1.83
2019-05-13T07:29:55.551Z,1.63
2019-05-13T07:32:23.584Z,1.60
2019-05-13T07:34:53.483Z,1.80
2019-05-13T07:37:22.942Z,2.13
2019-05-13T07:39:53.221Z,1.50
2019-05-13T07:42:22.595Z,1.60
2019-05-13T07:44:52.340Z,1.40
2019-05-13T07:47:22.424Z,1.40
2019-05-13T07:49:51.925Z,1.80
2019-05-13T07:52:22.799Z,1.30
2019-05-13T07:54:52.336Z,1.50
2019-05-13T07:57:21.661Z,1.67
2019-05-13T07:59:52.379Z,1.67
2019-05-13T08:02:21.967Z,1.40
2019-05-13T08:04:53.100Z,1.40
2019-05-13T08:07:22.804Z,1.50
2019-05-13T08:09:55.691Z,1.50
2019-05-13T08:12:23.330Z,1.97
2019-05-13T08:14:52.707Z,1.70
2019-05-13T08:17:22.579Z,1.50
2019-05-13T08:19:52.258Z,1.50
2019-05-13T08:22:22.251Z,1.50
2019-05-13T08:24:54.160Z,1.50
2019-05-13T08:27:30.346Z,1.53
2019-05-13T08:29:53.865Z,1.67
2019-05-13T08:32:23.217Z,1.60
2019-05-13T08:35:01.828Z,1.60
2019-05-13T08:37:23.657Z,1.90
2019-05-13T08:39:53.038Z,1.43
2019-05-13T08:42:23.521Z,1.63
2019-05-13T08:44:53.110Z,1.50
2019-05-13T08:47:22.591Z,1.80
2019-05-13T08:49:52.196Z,1.80
2019-05-13T08:52:22.037Z,2.00
2019-05-13T08:54:52.469Z,1.90
2019-05-13T08:57:22.271Z,1.67
2019-05-13T08:59:51.860Z,1.50
2019-05-13T09:02:22.303Z,2.00
2019-05-13T09:04:51.681Z,1.73
2019-05-13T09:07:24.211Z,1.67
2019-05-13T09:09:52.745Z,1.47
2019-05-13T09:12:32.270Z,1.60
2019-05-13T09:14:53.202Z,1.90
2019-05-13T09:17:22.568Z,2.10
2019-05-13T09:19:52.161Z,1.80
2019-05-13T09:22:21.653Z,1.63
2019-05-13T09:24:53.077Z,1.80
2019-05-13T09:27:22.679Z,1.90
2019-05-13T09:29:52.232Z,1.90
2019-05-13T09:32:21.763Z,1.87
2019-05-13T09:34:52.440Z,2.23
2019-05-13T09:37:22.617Z,2.60
2019-05-13T09:39:52.125Z,2.10
2019-05-13T09:42:21.786Z,2.20
2019-05-13T09:44:52.544Z,2.20
2019-05-13T09:47:22.192Z,2.40
2019-05-13T09:49:51.537Z,2.40
2019-05-13T09:52:22.607Z,2.10
2019-05-13T09:54:52.459Z,2.57
2019-05-13T09:57:22.164Z,2.60
2019-05-13T09:59:52.426Z,2.37
2019-05-13T10:02:21.911Z,2.53
2019-05-13T10:04:51.696Z,2.50
2019-05-13T10:07:22.949Z,2.30
2019-05-13T10:09:52.282Z,2.37
2019-05-13T10:12:24.382Z,2.27
2019-05-13T10:14:52.898Z,2.40
2019-05-13T10:17:22.442Z,2.40
2019-05-13T10:19:52.143Z,2.60
2019-05-13T10:22:22.000Z,2.40
2019-05-13T10:24:51.720Z,2.33
2019-05-13T10:27:22.360Z,2.20
2019-05-13T10:29:52.335Z,2.30
2019-05-13T10:32:22.087Z,2.23
2019-05-13T10:34:53.879Z,2.30
2019-05-13T10:37:23.199Z,2.50
2019-05-13T10:39:52.825Z,2.33
2019-05-13T10:42:22.463Z,2.10
2019-05-13T10:44:52.490Z,2.50
2019-05-13T10:47:22.751Z,2.20
2019-05-13T10:49:52.638Z,2.27
2019-05-13T10:52:22.943Z,2.20
2019-05-13T10:54:52.874Z,1.90
2019-05-13T10:57:22.411Z,2.00
2019-05-13T10:59:52.921Z,2.30
2019-05-13T11:02:22.507Z,2.23
2019-05-13T11:04:52.571Z,2.10
2019-05-13T11:07:22.665Z,2.30
2019-05-13T11:09:52.867Z,1.80
2019-05-13T11:12:28.064Z,1.97
2019-05-13T11:14:55.378Z,1.80
2019-05-13T11:17:31.121Z,2.00
2019-05-13T11:19:55.693Z,2.20
2019-05-13T11:22:25.004Z,1.80
2019-05-13T11:24:54.372Z,2.43
2019-05-13T11:27:23.757Z,2.23
2019-05-13T11:29:53.037Z,2.10
2019-05-13T11:32:22.533Z,2.00
2019-05-13T11:34:53.070Z,1.90
2019-05-13T11:37:23.354Z,2.53
2019-05-13T11:39:52.754Z,2.07
2019-05-13T11:42:22.917Z,2.00
2019-05-13T11:44:53.025Z,2.03
2019-05-13T11:47:22.572Z,1.97
2019-05-13T11:49:52.469Z,2.27
2019-05-13T11:52:22.686Z,2.30
2019-05-13T11:54:53.751Z,2.00
2019-05-13T11:57:23.507Z,2.10
2019-05-13T11:59:53.353Z,2.87
2019-05-13T12:02:23.384Z,2.20
2019-05-13T12:04:53.699Z,2.07
2019-05-13T12:07:23.576Z,2.50
2019-05-13T12:09:53.149Z,2.70
2019-05-13T12:12:27.468Z,2.53
2019-05-13T12:15:20.262Z,2.50
2019-05-13T12:17:24.651Z,2.57
2019-05-13T12:19:54.481Z,2.30
2019-05-13T12:22:24.007Z,2.43
2019-05-13T12:24:53.456Z,2.30
2019-05-13T12:27:23.088Z,2.30
2019-05-13T12:29:53.125Z,2.50
2019-05-13T12:32:22.715Z,2.00
2019-05-13T12:34:52.773Z,2.30
2019-05-13T12:37:22.357Z,2.23
2019-05-13T12:39:53.211Z,2.00
2019-05-13T12:42:22.970Z,2.70
2019-05-13T12:45:08.392Z,2.40
2019-05-13T12:47:23.389Z,2.33
2019-05-13T12:49:52.719Z,2.13
2019-05-13T12:52:22.809Z,2.37
2019-05-13T12:54:53.052Z,2.50
2019-05-13T12:57:23.072Z,2.43
2019-05-13T12:59:52.667Z,2.80
2019-05-13T13:02:22.767Z,2.20
2019-05-13T13:05:09.189Z,2.70
2019-05-13T13:07:23.214Z,3.00
2019-05-13T13:09:53.873Z,2.70
2019-05-13T13:12:33.722Z,3.00
2019-05-13T13:14:54.786Z,2.40
2019-05-13T13:17:24.468Z,2.60
2019-05-13T13:19:59.830Z,2.53
2019-05-13T13:22:25.519Z,2.20
2019-05-13T13:24:57.293Z,2.47
2019-05-13T13:27:57.856Z,3.00
2019-05-13T13:30:03.030Z,2.57
2019-05-13T13:32:28.237Z,2.30
2019-05-13T13:34:57.564Z,2.70
2019-05-13T13:37:27.169Z,2.90
2019-05-13T13:39:56.504Z,2.53
2019-05-13T13:42:25.847Z,2.57
2019-05-13T13:44:55.226Z,2.70
2019-05-13T13:47:24.578Z,2.73
2019-05-13T13:49:53.922Z,2.80
2019-05-13T13:52:23.259Z,3.40
2019-05-13T13:55:02.651Z,2.90
2019-05-13T13:57:25.709Z,3.07
2019-05-13T14:00:20.028Z,3.50
2019-05-13T14:02:26.131Z,2.93
2019-05-13T14:04:55.914Z,3.30
2019-05-13T14:07:34.334Z,2.77
2019-05-13T14:09:56.378Z,2.70
2019-05-13T14:12:25.713Z,3.10
2019-05-13T14:14:55.015Z,3.20
2019-05-13T14:17:24.382Z,3.10
2019-05-13T14:19:53.716Z,3.07
2019-05-13T14:22:23.055Z,2.90
2019-05-13T14:24:52.565Z,2.80
2019-05-13T14:27:22.509Z,2.67
2019-05-13T14:29:52.778Z,2.90
2019-05-13T14:32:22.624Z,2.80
2019-05-13T14:34:52.851Z,2.50
2019-05-13T14:37:22.553Z,2.40
2019-05-13T14:39:51.910Z,2.70
2019-05-13T14:42:22.757Z,3.20
2019-05-13T14:44:52.325Z,3.00
2019-05-13T14:47:21.934Z,2.70
2019-05-13T14:49:52.080Z,3.47
2019-05-13T14:52:22.317Z,3.57
2019-05-13T14:54:51.840Z,3.07
2019-05-13T14:57:21.849Z,3.50
2019-05-13T14:59:51.575Z,3.17
2019-05-13T15:02:21.008Z,3.23
2019-05-13T15:04:52.323Z,3.23
2019-05-13T15:07:21.802Z,3.63
2019-05-13T15:10:03.344Z,3.17
2019-05-13T15:12:32.666Z,3.43
2019-05-13T15:15:02.114Z,3.30
2019-05-13T15:17:34.648Z,3.10
2019-05-13T15:20:02.821Z,3.77
2019-05-13T15:22:32.166Z,3.80
2019-05-13T15:25:02.715Z,3.63
2019-05-13T15:27:32.365Z,3.50
2019-05-13T15:30:16.692Z,2.90
2019-05-13T15:32:32.802Z,3.37
2019-05-13T15:35:02.469Z,3.17
2019-05-13T15:37:32.265Z,3.70
2019-05-13T15:40:02.399Z,3.40
2019-05-13T15:42:32.038Z,3.40
2019-05-13T15:45:02.047Z,3.40
2019-05-13T15:47:31.616Z,3.00
2019-05-13T15:50:02.490Z,3.43
2019-05-13T15:52:31.968Z,3.43
2019-05-13T15:55:01.548Z,3.10
2019-05-13T15:57:31.924Z,3.40
2019-05-13T16:00:02.042Z,3.40
2019-05-13T16:02:31.496Z,3.70
2019-05-13T16:05:04.321Z,3.40
2019-05-13T16:07:31.986Z,3.33
2019-05-13T16:10:02.086Z,3.17
2019-05-13T16:12:32.457Z,3.50
2019-05-13T16:15:02.269Z,3.40
2019-05-13T16:17:41.290Z,3.00
2019-05-13T16:20:02.792Z,3.77
2019-05-13T16:22:32.144Z,2.90
2019-05-13T16:25:01.648Z,3.80
2019-05-13T16:27:31.319Z,3.00
2019-05-13T16:30:02.422Z,3.70
2019-05-13T16:32:32.001Z,3.37
2019-05-13T16:35:02.697Z,3.23
2019-05-13T16:37:32.410Z,3.33
2019-05-13T16:40:01.723Z,3.37
2019-05-13T16:42:31.855Z,2.97
2019-05-13T16:45:01.365Z,3.07
2019-05-13T16:47:31.852Z,2.87
2019-05-13T16:50:02.666Z,3.00
2019-05-13T16:52:32.227Z,3.23
2019-05-13T16:55:02.573Z,2.87
2019-05-13T16:57:31.999Z,3.17
2019-05-13T17:00:02.508Z,3.00
2019-05-13T17:02:32.125Z,2.93
2019-05-13T17:05:01.548Z,3.03
2019-05-13T17:07:31.817Z,3.30
2019-05-13T17:10:03.613Z,3.13
2019-05-13T17:12:32.222Z,2.90
2019-05-13T17:15:01.572Z,2.83
2019-05-13T17:17:31.782Z,2.73
2019-05-13T17:20:02.374Z,2.77
2019-05-13T17:22:31.841Z,2.47
2019-05-13T17:25:02.571Z,2.47
2019-05-13T17:27:32.040Z,2.90
2019-05-13T17:30:02.063Z,2.53
2019-05-13T17:32:31.564Z,2.57
2019-05-13T17:35:02.143Z,2.50
2019-05-13T17:37:31.537Z,2.27
2019-05-13T17:40:01.519Z,2.87
2019-05-13T17:42:31.969Z,2.50
2019-05-13T17:45:02.411Z,1.97
2019-05-13T17:47:31.829Z,2.50
2019-05-13T17:50:01.324Z,2.03
2019-05-13T17:52:30.765Z,2.60
2019-05-13T17:55:01.156Z,2.40
2019-05-13T17:57:32.055Z,2.20
2019-05-13T18:00:01.571Z,2.77
2019-05-13T18:02:31.396Z,2.60
2019-05-13T18:05:02.077Z,2.60
2019-05-13T18:07:32.113Z,2.47
2019-05-13T18:10:01.705Z,2.10
2019-05-13T18:12:30.985Z,2.20
2019-05-13T18:15:02.463Z,2.10
2019-05-13T18:17:31.406Z,2.40
2019-05-13T18:20:02.289Z,1.97
2019-05-13T18:22:32.001Z,2.30
2019-05-13T18:25:02.563Z,2.20
2019-05-13T18:27:32.424Z,2.33
2019-05-13T18:30:02.317Z,2.43
2019-05-13T18:32:32.093Z,2.90
2019-05-13T18:35:01.870Z,2.50
2019-05-13T18:37:31.690Z,2.80
2019-05-13T18:40:02.561Z,2.43
2019-05-13T18:42:32.130Z,2.43
2019-05-13T18:45:02.230Z,2.53
2019-05-13T18:47:31.869Z,2.60
2019-05-13T18:50:02.347Z,2.30
2019-05-13T18:52:31.963Z,2.53
2019-05-13T18:55:02.011Z,2.40
2019-05-13T18:57:31.992Z,2.37
2019-05-13T19:00:02.253Z,2.50
2019-05-13T19:02:32.545Z,2.70
2019-05-13T19:05:02.264Z,2.53
2019-05-13T19:07:31.740Z,2.80
2019-05-13T19:10:02.576Z,2.30
2019-05-13T19:12:32.112Z,3.13
2019-05-13T19:15:02.487Z,2.40
2019-05-13T19:17:32.371Z,2.40
2019-05-13T19:20:01.780Z,2.93
2019-05-13T19:22:31.783Z,2.33
2019-05-13T19:25:01.251Z,2.13
2019-05-13T19:27:32.097Z,1.90
2019-05-13T19:30:01.561Z,1.90
2019-05-13T19:32:32.359Z,2.03
2019-05-13T19:35:02.656Z,2.27
2019-05-13T19:37:32.120Z,1.90
2019-05-13T19:40:01.452Z,1.93
2019-05-13T19:42:31.349Z,2.07
2019-05-13T19:45:01.925Z,1.90
2019-05-13T19:47:31.329Z,3.10
2019-05-13T19:50:02.255Z,2.57
2019-05-13T19:52:32.124Z,2.70
2019-05-13T19:55:01.885Z,2.33
2019-05-13T19:57:31.829Z,2.27
2019-05-13T20:00:01.439Z,2.70
2019-05-13T20:02:31.608Z,2.90
2019-05-13T20:05:01.266Z,2.83
2019-05-13T20:07:31.853Z,3.30
2019-05-13T20:10:02.761Z,2.70
2019-05-13T20:12:32.347Z,2.20
2019-05-13T20:15:01.706Z,2.40
2019-05-13T20:17:32.106Z,1.87
2019-05-13T20:20:02.130Z,2.30
2019-05-13T20:22:31.597Z,1.90
2019-05-13T20:25:00.923Z,1.77
2019-05-13T20:27:31.663Z,1.80
2019-05-13T20:30:01.656Z,2.03
2019-05-13T20:32:31.126Z,1.80
2019-05-13T20:35:02.134Z,2.10
2019-05-13T20:37:32.178Z,2.33
2019-05-13T20:40:02.402Z,2.10
2019-05-13T20:42:31.942Z,1.90
2019-05-13T20:45:02.485Z,2.40
2019-05-13T20:47:33.418Z,1.77
2019-05-13T20:50:03.003Z,2.30
2019-05-13T20:52:32.392Z,2.50
2019-05-13T20:55:01.977Z,2.23
2019-05-13T20:57:32.374Z,2.40
2019-05-13T21:00:02.507Z,2.50
2019-05-13T21:02:32.042Z,2.70
2019-05-13T21:05:01.761Z,2.60
2019-05-13T21:07:32.093Z,3.07
2019-05-13T21:10:01.583Z,3.50
2019-05-13T21:12:31.381Z,3.07
2019-05-13T21:15:01.580Z,3.10
2019-05-13T21:17:31.068Z,3.20
2019-05-13T21:20:17.596Z,3.10
2019-05-13T21:22:31.769Z,3.50
2019-05-13T21:25:02.145Z,3.20
2019-05-13T21:27:31.592Z,3.30
2019-05-13T21:30:01.284Z,3.43
2019-05-13T21:32:30.702Z,3.47
2019-05-13T21:35:01.722Z,3.73
2019-05-13T21:37:31.159Z,3.97
2019-05-13T21:40:00.532Z,4.13
2019-05-13T21:42:32.046Z,4.43
2019-05-13T21:45:01.742Z,4.17
2019-05-13T21:47:31.279Z,4.47
2019-05-13T21:50:00.614Z,4.10
2019-05-13T21:52:32.220Z,4.47
2019-05-13T21:55:01.873Z,4.47
2019-05-13T21:57:33.151Z,4.00
2019-05-13T22:00:02.594Z,3.93
2019-05-13T22:02:31.945Z,4.00
2019-05-13T22:05:01.368Z,4.07
2019-05-13T22:07:31.482Z,4.10
2019-05-13T22:10:02.003Z,4.40
2019-05-13T22:12:32.123Z,4.30
2019-05-13T22:15:01.643Z,3.63
2019-05-13T22:17:31.655Z,4.00
2019-05-13T22:20:01.859Z,4.47
2019-05-13T22:22:32.121Z,4.00
2019-05-13T22:25:02.055Z,4.23
2019-05-13T22:27:31.421Z,3.67
2019-05-13T22:30:01.318Z,4.03
2019-05-13T22:32:30.836Z,3.80
2019-05-13T22:35:01.896Z,3.83
2019-05-13T22:37:31.423Z,4.17
2019-05-13T22:40:01.538Z,4.00
2019-05-13T22:42:32.307Z,3.57
2019-05-13T22:45:02.773Z,4.10
2019-05-13T22:47:32.497Z,3.97
2019-05-13T22:50:02.255Z,3.90
2019-05-13T22:52:31.654Z,3.77
2019-05-13T22:55:02.480Z,3.90
2019-05-13T22:57:32.023Z,3.97
2019-05-13T23:00:01.354Z,4.37
2019-05-13T23:02:33.385Z,4.40
2019-05-13T23:05:01.885Z,5.40
2019-05-13T23:07:31.589Z,4.83
2019-05-13T23:10:00.915Z,4.93
2019-05-13T23:12:31.441Z,4.90
2019-05-13T23:15:01.321Z,5.23
2019-05-13T23:17:32.052Z,5.43
2019-05-13T23:20:01.626Z,5.30
2019-05-13T23:22:30.924Z,5.50
2019-05-13T23:25:01.553Z,5.57
2019-05-13T23:27:32.124Z,5.53
2019-05-13T23:30:01.527Z,5.80
2019-05-13T23:32:32.050Z,5.30
2019-05-13T23:35:02.107Z,5.97
2019-05-13T23:37:31.605Z,5.77
2019-05-13T23:40:01.409Z,5.73
2019-05-13T23:42:31.981Z,5.80
2019-05-13T23:45:01.439Z,6.17
2019-05-13T23:47:31.182Z,6.03
2019-05-13T23:50:01.905Z,6.00
2019-05-13T23:52:31.551Z,6.20
2019-05-13T23:55:02.532Z,6.20
2019-05-13T23:57:31.935Z,5.87
